sensor_id;sensor_type;location;lat;lon;timestamp;temperature;humidity
37806;DHT22;25082;50.870;0.022;2024-01-10T00:01:59;18.20;54.00
37806;DHT22;25082;50.870;0.022;2024-01-10T00:04:24;18.10;54.00
37806;DHT22;25082;50.870;0.022;2024-01-10T00:06:50;18.10;54.00
37806;DHT22;25082;50.870;0.022;2024-01-10T00:09:16;18.20;53.90
37806;DHT22;25082;50.870;0.022;2024-01-10T00:11:42;18.10;53.90
37806;DHT22;25082;50.870;0.022;2024-01-10T00:14:07;18.10;53.90
37806;DHT22;25082;50.870;0.022;2024-01-10T00:16:34;18.10;53.80
37806;DHT22;25082;50.870;0.022;2024-01-10T00:19:00;18.10;53.80
37806;DHT22;25082;50.870;0.022;2024-01-10T00:21:26;18.00;53.80
37806;DHT22;25082;50.870;0.022;2024-01-10T00:23:52;18.00;53.70
37806;DHT22;25082;50.870;0.022;2024-01-10T00:26:18;18.00;53.60
37806;DHT22;25082;50.870;0.022;2024-01-10T00:28:44;18.00;53.60
37806;DHT22;25082;50.870;0.022;2024-01-10T00:31:12;18.00;53.60
37806;DHT22;25082;50.870;0.022;2024-01-10T00:33:38;18.00;53.70
37806;DHT22;25082;50.870;0.022;2024-01-10T00:36:05;18.00;53.70
37806;DHT22;25082;50.870;0.022;2024-01-10T00:38:31;17.90;53.40
37806;DHT22;25082;50.870;0.022;2024-01-10T00:40:57;18.00;53.50
37806;DHT22;25082;50.870;0.022;2024-01-10T00:43:23;17.90;53.50
37806;DHT22;25082;50.870;0.022;2024-01-10T00:45:49;17.90;53.30
37806;DHT22;25082;50.870;0.022;2024-01-10T00:48:14;17.90;53.40
37806;DHT22;25082;50.870;0.022;2024-01-10T00:50:40;17.80;53.20
37806;DHT22;25082;50.870;0.022;2024-01-10T00:53:06;17.90;53.30
37806;DHT22;25082;50.870;0.022;2024-01-10T00:55:31;17.90;53.20
37806;DHT22;25082;50.870;0.022;2024-01-10T00:57:57;17.80;53.20
37806;DHT22;25082;50.870;0.022;2024-01-10T01:00:23;17.80;53.20
37806;DHT22;25082;50.870;0.022;2024-01-10T01:02:49;17.80;53.20
37806;DHT22;25082;50.870;0.022;2024-01-10T01:05:14;17.80;53.10
37806;DHT22;25082;50.870;0.022;2024-01-10T01:07:40;17.80;53.10
37806;DHT22;25082;50.870;0.022;2024-01-10T01:10:06;17.70;53.00
37806;DHT22;25082;50.870;0.022;2024-01-10T01:12:34;17.70;52.90
37806;DHT22;25082;50.870;0.022;2024-01-10T01:15:00;17.70;53.00
37806;DHT22;25082;50.870;0.022;2024-01-10T01:17:26;17.70;52.90
37806;DHT22;25082;50.870;0.022;2024-01-10T01:19:51;17.70;52.90
37806;DHT22;25082;50.870;0.022;2024-01-10T01:22:17;17.70;52.90
37806;DHT22;25082;50.870;0.022;2024-01-10T01:24:43;17.70;52.90
37806;DHT22;25082;50.870;0.022;2024-01-10T01:27:09;17.70;52.80
37806;DHT22;25082;50.870;0.022;2024-01-10T01:29:35;17.70;52.70
37806;DHT22;25082;50.870;0.022;2024-01-10T01:32:00;17.60;52.70
37806;DHT22;25082;50.870;0.022;2024-01-10T01:34:26;17.60;52.60
37806;DHT22;25082;50.870;0.022;2024-01-10T01:36:52;17.60;52.60
37806;DHT22;25082;50.870;0.022;2024-01-10T01:39:18;17.50;52.60
37806;DHT22;25082;50.870;0.022;2024-01-10T01:41:44;17.60;52.60
37806;DHT22;25082;50.870;0.022;2024-01-10T01:44:10;17.60;52.60
37806;DHT22;25082;50.870;0.022;2024-01-10T01:46:36;17.50;52.50
37806;DHT22;25082;50.870;0.022;2024-01-10T01:49:03;17.50;52.50
37806;DHT22;25082;50.870;0.022;2024-01-10T01:51:29;17.50;52.40
37806;DHT22;25082;50.870;0.022;2024-01-10T01:53:56;17.50;52.50
37806;DHT22;25082;50.870;0.022;2024-01-10T01:56:23;17.50;52.50
37806;DHT22;25082;50.870;0.022;2024-01-10T01:58:51;17.40;52.50
37806;DHT22;25082;50.870;0.022;2024-01-10T02:01:17;17.40;52.40
37806;DHT22;25082;50.870;0.022;2024-01-10T02:03:47;17.40;52.30
37806;DHT22;25082;50.870;0.022;2024-01-10T02:06:12;17.40;52.30
37806;DHT22;25082;50.870;0.022;2024-01-10T02:08:38;17.40;52.30
37806;DHT22;25082;50.870;0.022;2024-01-10T02:11:05;17.40;52.30
37806;DHT22;25082;50.870;0.022;2024-01-10T02:13:31;17.40;52.20
37806;DHT22;25082;50.870;0.022;2024-01-10T02:16:00;17.40;52.20
37806;DHT22;25082;50.870;0.022;2024-01-10T02:18:26;17.40;52.20
37806;DHT22;25082;50.870;0.022;2024-01-10T02:20:52;17.30;52.00
37806;DHT22;25082;50.870;0.022;2024-01-10T02:23:18;17.30;52.10
37806;DHT22;25082;50.870;0.022;2024-01-10T02:25:44;17.30;52.10
37806;DHT22;25082;50.870;0.022;2024-01-10T02:28:10;17.40;52.20
37806;DHT22;25082;50.870;0.022;2024-01-10T02:30:36;17.30;52.00
37806;DHT22;25082;50.870;0.022;2024-01-10T02:33:02;17.30;52.00
37806;DHT22;25082;50.870;0.022;2024-01-10T02:35:28;17.30;51.90
37806;DHT22;25082;50.870;0.022;2024-01-10T02:37:55;17.20;52.50
37806;DHT22;25082;50.870;0.022;2024-01-10T02:40:21;17.20;51.90
37806;DHT22;25082;50.870;0.022;2024-01-10T02:42:47;17.20;51.80
37806;DHT22;25082;50.870;0.022;2024-01-10T02:45:13;17.20;51.80
37806;DHT22;25082;50.870;0.022;2024-01-10T02:47:38;17.20;51.80
37806;DHT22;25082;50.870;0.022;2024-01-10T02:50:05;17.20;51.80
37806;DHT22;25082;50.870;0.022;2024-01-10T02:52:31;17.20;51.80
37806;DHT22;25082;50.870;0.022;2024-01-10T02:54:57;17.20;51.70
37806;DHT22;25082;50.870;0.022;2024-01-10T02:57:23;17.10;51.60
37806;DHT22;25082;50.870;0.022;2024-01-10T02:59:49;17.10;51.70
37806;DHT22;25082;50.870;0.022;2024-01-10T03:02:15;17.10;51.70
37806;DHT22;25082;50.870;0.022;2024-01-10T03:04:41;17.10;51.60
37806;DHT22;25082;50.870;0.022;2024-01-10T03:07:07;17.10;51.60
37806;DHT22;25082;50.870;0.022;2024-01-10T03:09:33;17.10;51.60
37806;DHT22;25082;50.870;0.022;2024-01-10T03:11:59;17.10;51.60
37806;DHT22;25082;50.870;0.022;2024-01-10T03:14:24;17.10;51.60
37806;DHT22;25082;50.870;0.022;2024-01-10T03:16:50;17.10;51.50
37806;DHT22;25082;50.870;0.022;2024-01-10T03:19:16;17.00;51.50
37806;DHT22;25082;50.870;0.022;2024-01-10T03:21:42;17.00;51.50
37806;DHT22;25082;50.870;0.022;2024-01-10T03:24:08;17.00;52.00
37806;DHT22;25082;50.870;0.022;2024-01-10T03:26:34;17.00;51.40
37806;DHT22;25082;50.870;0.022;2024-01-10T03:28:59;17.00;51.40
37806;DHT22;25082;50.870;0.022;2024-01-10T03:31:27;17.00;51.40
37806;DHT22;25082;50.870;0.022;2024-01-10T03:33:54;17.00;51.30
37806;DHT22;25082;50.870;0.022;2024-01-10T03:36:20;17.00;51.30
37806;DHT22;25082;50.870;0.022;2024-01-10T03:38:46;16.90;51.30
37806;DHT22;25082;50.870;0.022;2024-01-10T03:41:18;16.90;51.30
37806;DHT22;25082;50.870;0.022;2024-01-10T03:43:44;16.90;51.30
37806;DHT22;25082;50.870;0.022;2024-01-10T03:46:11;16.90;51.30
37806;DHT22;25082;50.870;0.022;2024-01-10T03:48:37;16.90;51.30
37806;DHT22;25082;50.870;0.022;2024-01-10T03:51:06;16.90;51.30
37806;DHT22;25082;50.870;0.022;2024-01-10T03:53:32;16.90;51.30
37806;DHT22;25082;50.870;0.022;2024-01-10T03:55:57;16.80;51.20
37806;DHT22;25082;50.870;0.022;2024-01-10T03:58:23;16.80;51.20
37806;DHT22;25082;50.870;0.022;2024-01-10T04:00:49;16.90;51.30
37806;DHT22;25082;50.870;0.022;2024-01-10T04:03:15;16.80;51.20
37806;DHT22;25082;50.870;0.022;2024-01-10T04:05:42;16.80;51.20
37806;DHT22;25082;50.870;0.022;2024-01-10T04:08:07;16.80;51.20
37806;DHT22;25082;50.870;0.022;2024-01-10T04:10:33;16.80;51.30
37806;DHT22;25082;50.870;0.022;2024-01-10T04:12:59;16.80;51.20
37806;DHT22;25082;50.870;0.022;2024-01-10T04:15:25;16.80;51.20
37806;DHT22;25082;50.870;0.022;2024-01-10T04:17:50;16.80;51.20
37806;DHT22;25082;50.870;0.022;2024-01-10T04:20:16;16.70;51.10
37806;DHT22;25082;50.870;0.022;2024-01-10T04:22:42;16.70;51.10
37806;DHT22;25082;50.870;0.022;2024-01-10T04:25:08;16.70;51.20
37806;DHT22;25082;50.870;0.022;2024-01-10T04:27:34;16.70;51.10
37806;DHT22;25082;50.870;0.022;2024-01-10T04:29:59;16.70;51.10
37806;DHT22;25082;50.870;0.022;2024-01-10T04:32:25;16.60;51.10
37806;DHT22;25082;50.870;0.022;2024-01-10T04:34:51;16.70;51.10
37806;DHT22;25082;50.870;0.022;2024-01-10T04:37:17;16.70;51.10
37806;DHT22;25082;50.870;0.022;2024-01-10T04:39:43;16.60;51.00
37806;DHT22;25082;50.870;0.022;2024-01-10T04:42:10;16.60;50.90
37806;DHT22;25082;50.870;0.022;2024-01-10T04:44:37;16.60;51.00
37806;DHT22;25082;50.870;0.022;2024-01-10T04:47:04;16.60;51.00
37806;DHT22;25082;50.870;0.022;2024-01-10T04:49:30;16.60;51.00
37806;DHT22;25082;50.870;0.022;2024-01-10T04:51:56;16.60;51.00
37806;DHT22;25082;50.870;0.022;2024-01-10T04:54:21;16.60;51.00
37806;DHT22;25082;50.870;0.022;2024-01-10T04:56:47;16.60;51.00
37806;DHT22;25082;50.870;0.022;2024-01-10T04:59:13;16.50;51.00
37806;DHT22;25082;50.870;0.022;2024-01-10T05:01:39;16.50;51.00
37806;DHT22;25082;50.870;0.022;2024-01-10T05:04:05;16.50;51.00
37806;DHT22;25082;50.870;0.022;2024-01-10T05:06:31;16.50;51.00
37806;DHT22;25082;50.870;0.022;2024-01-10T05:08:57;16.50;51.00
37806;DHT22;25082;50.870;0.022;2024-01-10T05:11:25;16.50;50.90
37806;DHT22;25082;50.870;0.022;2024-01-10T05:13:53;16.50;50.90
37806;DHT22;25082;50.870;0.022;2024-01-10T05:16:19;16.50;50.90
37806;DHT22;25082;50.870;0.022;2024-01-10T05:18:45;16.50;50.90
37806;DHT22;25082;50.870;0.022;2024-01-10T05:21:10;16.40;50.90
37806;DHT22;25082;50.870;0.022;2024-01-10T05:23:36;16.40;50.80
37806;DHT22;25082;50.870;0.022;2024-01-10T05:26:04;16.40;50.90
37806;DHT22;25082;50.870;0.022;2024-01-10T05:28:30;16.40;50.90
37806;DHT22;25082;50.870;0.022;2024-01-10T05:30:57;16.40;50.90
37806;DHT22;25082;50.870;0.022;2024-01-10T05:33:23;16.40;51.00
37806;DHT22;25082;50.870;0.022;2024-01-10T05:35:48;16.30;50.80
37806;DHT22;25082;50.870;0.022;2024-01-10T05:38:14;16.40;50.90
37806;DHT22;25082;50.870;0.022;2024-01-10T05:40:40;16.30;50.90
37806;DHT22;25082;50.870;0.022;2024-01-10T05:43:06;16.30;50.80
37806;DHT22;25082;50.870;0.022;2024-01-10T05:45:32;16.30;50.80
37806;DHT22;25082;50.870;0.022;2024-01-10T05:47:58;16.30;50.80
37806;DHT22;25082;50.870;0.022;2024-01-10T05:50:24;16.30;50.90
37806;DHT22;25082;50.870;0.022;2024-01-10T05:52:50;16.30;50.80
37806;DHT22;25082;50.870;0.022;2024-01-10T05:55:16;16.30;50.90
37806;DHT22;25082;50.870;0.022;2024-01-10T05:57:42;16.20;50.80
37806;DHT22;25082;50.870;0.022;2024-01-10T06:00:08;16.30;50.90
37806;DHT22;25082;50.870;0.022;2024-01-10T06:02:38;16.20;50.80
37806;DHT22;25082;50.870;0.022;2024-01-10T06:05:08;16.20;50.80
37806;DHT22;25082;50.870;0.022;2024-01-10T06:07:35;16.20;50.70
37806;DHT22;25082;50.870;0.022;2024-01-10T06:10:01;16.20;50.80
37806;DHT22;25082;50.870;0.022;2024-01-10T06:12:27;16.20;50.80
37806;DHT22;25082;50.870;0.022;2024-01-10T06:14:53;16.10;50.70
37806;DHT22;25082;50.870;0.022;2024-01-10T06:17:19;16.10;50.80
37806;DHT22;25082;50.870;0.022;2024-01-10T06:19:45;16.10;50.90
37806;DHT22;25082;50.870;0.022;2024-01-10T06:22:11;16.10;50.90
37806;DHT22;25082;50.870;0.022;2024-01-10T06:24:37;16.10;50.90
37806;DHT22;25082;50.870;0.022;2024-01-10T06:27:09;16.10;50.80
37806;DHT22;25082;50.870;0.022;2024-01-10T06:29:36;16.10;50.70
37806;DHT22;25082;50.870;0.022;2024-01-10T06:32:03;16.20;50.60
37806;DHT22;25082;50.870;0.022;2024-01-10T06:34:29;16.10;50.40
37806;DHT22;25082;50.870;0.022;2024-01-10T06:36:55;16.10;50.40
37806;DHT22;25082;50.870;0.022;2024-01-10T06:39:21;16.20;50.40
37806;DHT22;25082;50.870;0.022;2024-01-10T06:41:48;16.10;50.30
37806;DHT22;25082;50.870;0.022;2024-01-10T06:44:14;16.10;50.30
37806;DHT22;25082;50.870;0.022;2024-01-10T06:46:40;16.10;50.30
37806;DHT22;25082;50.870;0.022;2024-01-10T06:49:06;16.10;50.30
37806;DHT22;25082;50.870;0.022;2024-01-10T06:51:33;16.10;50.40
37806;DHT22;25082;50.870;0.022;2024-01-10T06:53:59;16.10;50.40
37806;DHT22;25082;50.870;0.022;2024-01-10T06:56:31;16.10;50.40
37806;DHT22;25082;50.870;0.022;2024-01-10T06:58:58;16.00;50.30
37806;DHT22;25082;50.870;0.022;2024-01-10T07:01:24;16.00;50.40
37806;DHT22;25082;50.870;0.022;2024-01-10T07:03:51;16.00;50.40
37806;DHT22;25082;50.870;0.022;2024-01-10T07:06:17;16.00;50.40
37806;DHT22;25082;50.870;0.022;2024-01-10T07:08:43;16.00;50.50
37806;DHT22;25082;50.870;0.022;2024-01-10T07:11:10;16.00;50.40
37806;DHT22;25082;50.870;0.022;2024-01-10T07:13:40;16.00;50.50
37806;DHT22;25082;50.870;0.022;2024-01-10T07:16:06;15.90;51.00
37806;DHT22;25082;50.870;0.022;2024-01-10T07:18:32;15.90;50.40
37806;DHT22;25082;50.870;0.022;2024-01-10T07:20:58;15.90;50.50
37806;DHT22;25082;50.870;0.022;2024-01-10T07:23:25;15.90;50.50
37806;DHT22;25082;50.870;0.022;2024-01-10T07:25:51;15.90;50.50
37806;DHT22;25082;50.870;0.022;2024-01-10T07:28:17;15.90;50.50
37806;DHT22;25082;50.870;0.022;2024-01-10T07:30:43;15.80;50.50
37806;DHT22;25082;50.870;0.022;2024-01-10T07:33:10;15.90;50.50
37806;DHT22;25082;50.870;0.022;2024-01-10T07:35:37;15.90;50.60
37806;DHT22;25082;50.870;0.022;2024-01-10T07:38:04;15.80;50.50
37806;DHT22;25082;50.870;0.022;2024-01-10T07:40:34;15.80;50.50
37806;DHT22;25082;50.870;0.022;2024-01-10T07:43:00;15.80;50.50
37806;DHT22;25082;50.870;0.022;2024-01-10T07:45:26;15.80;50.60
37806;DHT22;25082;50.870;0.022;2024-01-10T07:47:52;15.80;50.60
37806;DHT22;25082;50.870;0.022;2024-01-10T07:50:18;15.80;50.70
37806;DHT22;25082;50.870;0.022;2024-01-10T07:52:45;15.80;50.60
37806;DHT22;25082;50.870;0.022;2024-01-10T07:55:13;15.80;50.60
37806;DHT22;25082;50.870;0.022;2024-01-10T07:57:39;15.70;50.50
37806;DHT22;25082;50.870;0.022;2024-01-10T08:00:08;15.70;50.60
37806;DHT22;25082;50.870;0.022;2024-01-10T08:02:37;15.70;50.60
37806;DHT22;25082;50.870;0.022;2024-01-10T08:05:04;15.70;50.60
37806;DHT22;25082;50.870;0.022;2024-01-10T08:07:31;15.70;50.60
37806;DHT22;25082;50.870;0.022;2024-01-10T08:09:59;15.70;50.60
37806;DHT22;25082;50.870;0.022;2024-01-10T08:12:25;15.70;50.60
37806;DHT22;25082;50.870;0.022;2024-01-10T08:14:51;15.70;50.40
37806;DHT22;25082;50.870;0.022;2024-01-10T08:17:17;15.80;50.40
37806;DHT22;25082;50.870;0.022;2024-01-10T08:19:42;15.80;50.50
37806;DHT22;25082;50.870;0.022;2024-01-10T08:22:08;15.80;50.50
37806;DHT22;25082;50.870;0.022;2024-01-10T08:24:34;15.90;50.50
37806;DHT22;25082;50.870;0.022;2024-01-10T08:26:59;15.90;50.50
37806;DHT22;25082;50.870;0.022;2024-01-10T08:29:25;15.90;50.60
37806;DHT22;25082;50.870;0.022;2024-01-10T08:31:56;16.00;50.60
37806;DHT22;25082;50.870;0.022;2024-01-10T08:34:22;15.90;50.60
37806;DHT22;25082;50.870;0.022;2024-01-10T08:36:48;16.00;50.60
37806;DHT22;25082;50.870;0.022;2024-01-10T08:39:17;16.00;50.70
37806;DHT22;25082;50.870;0.022;2024-01-10T08:41:42;16.00;50.60
37806;DHT22;25082;50.870;0.022;2024-01-10T08:44:13;16.00;50.70
37806;DHT22;25082;50.870;0.022;2024-01-10T08:46:39;16.00;50.80
37806;DHT22;25082;50.870;0.022;2024-01-10T08:49:05;16.00;50.80
37806;DHT22;25082;50.870;0.022;2024-01-10T08:51:30;16.00;50.80
37806;DHT22;25082;50.870;0.022;2024-01-10T08:53:56;16.10;50.90
37806;DHT22;25082;50.870;0.022;2024-01-10T08:56:23;16.10;50.90
37806;DHT22;25082;50.870;0.022;2024-01-10T08:58:49;16.10;51.00
37806;DHT22;25082;50.870;0.022;2024-01-10T09:01:15;16.10;51.30
37806;DHT22;25082;50.870;0.022;2024-01-10T09:03:41;16.10;51.50
37806;DHT22;25082;50.870;0.022;2024-01-10T09:06:07;16.10;51.90
37806;DHT22;25082;50.870;0.022;2024-01-10T09:08:35;16.10;51.60
37806;DHT22;25082;50.870;0.022;2024-01-10T09:11:02;16.20;51.60
37806;DHT22;25082;50.870;0.022;2024-01-10T09:13:28;16.20;51.60
37806;DHT22;25082;50.870;0.022;2024-01-10T09:15:53;16.20;51.40
37806;DHT22;25082;50.870;0.022;2024-01-10T09:18:19;16.20;51.50
37806;DHT22;25082;50.870;0.022;2024-01-10T09:20:45;16.20;51.40
37806;DHT22;25082;50.870;0.022;2024-01-10T09:23:11;16.20;51.60
37806;DHT22;25082;50.870;0.022;2024-01-10T09:25:36;16.20;51.80
37806;DHT22;25082;50.870;0.022;2024-01-10T09:28:04;16.20;52.00
37806;DHT22;25082;50.870;0.022;2024-01-10T09:30:30;16.30;52.40
37806;DHT22;25082;50.870;0.022;2024-01-10T09:32:56;16.30;52.60
37806;DHT22;25082;50.870;0.022;2024-01-10T09:35:22;16.30;52.60
37806;DHT22;25082;50.870;0.022;2024-01-10T09:37:48;16.30;52.80
37806;DHT22;25082;50.870;0.022;2024-01-10T09:40:16;16.30;52.80
37806;DHT22;25082;50.870;0.022;2024-01-10T09:42:43;16.30;52.90
37806;DHT22;25082;50.870;0.022;2024-01-10T09:45:10;16.30;53.00
37806;DHT22;25082;50.870;0.022;2024-01-10T09:47:40;16.30;53.10
37806;DHT22;25082;50.870;0.022;2024-01-10T09:50:08;16.40;53.30
37806;DHT22;25082;50.870;0.022;2024-01-10T09:52:52;16.40;53.40
37806;DHT22;25082;50.870;0.022;2024-01-10T09:55:22;16.40;53.40
37806;DHT22;25082;50.870;0.022;2024-01-10T09:57:51;16.40;53.50
37806;DHT22;25082;50.870;0.022;2024-01-10T10:00:17;16.40;53.70
37806;DHT22;25082;50.870;0.022;2024-01-10T10:02:46;16.40;53.70
37806;DHT22;25082;50.870;0.022;2024-01-10T10:05:14;16.40;53.70
37806;DHT22;25082;50.870;0.022;2024-01-10T10:07:50;16.40;53.90
37806;DHT22;25082;50.870;0.022;2024-01-10T10:10:17;16.40;54.10
37806;DHT22;25082;50.870;0.022;2024-01-10T10:12:52;16.40;54.70
37806;DHT22;25082;50.870;0.022;2024-01-10T10:15:24;16.50;54.50
37806;DHT22;25082;50.870;0.022;2024-01-10T10:17:54;16.50;54.50
37806;DHT22;25082;50.870;0.022;2024-01-10T10:20:28;16.50;54.40
37806;DHT22;25082;50.870;0.022;2024-01-10T10:23:04;16.60;54.50
37806;DHT22;25082;50.870;0.022;2024-01-10T10:25:42;16.50;54.30
37806;DHT22;25082;50.870;0.022;2024-01-10T10:28:08;16.60;54.30
37806;DHT22;25082;50.870;0.022;2024-01-10T10:30:34;16.50;54.30
37806;DHT22;25082;50.870;0.022;2024-01-10T10:33:01;16.60;54.30
37806;DHT22;25082;50.870;0.022;2024-01-10T10:35:27;16.60;54.40
37806;DHT22;25082;50.870;0.022;2024-01-10T10:37:53;16.60;54.40
37806;DHT22;25082;50.870;0.022;2024-01-10T10:40:23;16.70;54.50
37806;DHT22;25082;50.870;0.022;2024-01-10T10:42:54;16.60;54.50
37806;DHT22;25082;50.870;0.022;2024-01-10T10:45:21;16.70;54.50
37806;DHT22;25082;50.870;0.022;2024-01-10T10:47:57;16.70;54.60
37806;DHT22;25082;50.870;0.022;2024-01-10T10:50:26;16.70;54.60
37806;DHT22;25082;50.870;0.022;2024-01-10T10:52:55;16.70;54.90
37806;DHT22;25082;50.870;0.022;2024-01-10T10:55:22;16.70;54.80
37806;DHT22;25082;50.870;0.022;2024-01-10T10:57:49;16.80;54.90
37806;DHT22;25082;50.870;0.022;2024-01-10T11:00:20;16.80;55.10
37806;DHT22;25082;50.870;0.022;2024-01-10T11:02:47;16.80;54.90
37806;DHT22;25082;50.870;0.022;2024-01-10T11:05:13;16.80;54.80
37806;DHT22;25082;50.870;0.022;2024-01-10T11:07:43;16.80;54.70
37806;DHT22;25082;50.870;0.022;2024-01-10T11:10:21;16.90;54.40
37806;DHT22;25082;50.870;0.022;2024-01-10T11:21:06;16.90;54.30
37806;DHT22;25082;50.870;0.022;2024-01-10T11:23:44;17.00;54.40
37806;DHT22;25082;50.870;0.022;2024-01-10T11:26:11;17.00;54.40
37806;DHT22;25082;50.870;0.022;2024-01-10T11:28:38;17.00;54.40
37806;DHT22;25082;50.870;0.022;2024-01-10T11:31:06;17.00;54.50
37806;DHT22;25082;50.870;0.022;2024-01-10T11:33:35;17.10;54.50
37806;DHT22;25082;50.870;0.022;2024-01-10T11:38:41;17.10;54.60
37806;DHT22;25082;50.870;0.022;2024-01-10T11:41:10;17.10;54.70
37806;DHT22;25082;50.870;0.022;2024-01-10T11:43:36;17.20;54.60
37806;DHT22;25082;50.870;0.022;2024-01-10T11:46:03;17.20;55.30
37806;DHT22;25082;50.870;0.022;2024-01-10T11:48:31;17.20;54.70
37806;DHT22;25082;50.870;0.022;2024-01-10T11:50:58;17.20;54.80
37806;DHT22;25082;50.870;0.022;2024-01-10T11:53:44;17.30;54.80
37806;DHT22;25082;50.870;0.022;2024-01-10T11:56:14;17.30;54.80
37806;DHT22;25082;50.870;0.022;2024-01-10T11:59:01;17.30;54.90
37806;DHT22;25082;50.870;0.022;2024-01-10T12:01:30;17.40;54.90
37806;DHT22;25082;50.870;0.022;2024-01-10T12:03:58;17.40;54.90
37806;DHT22;25082;50.870;0.022;2024-01-10T12:06:24;17.40;54.90
37806;DHT22;25082;50.870;0.022;2024-01-10T12:08:50;17.50;55.00
37806;DHT22;25082;50.870;0.022;2024-01-10T12:11:17;17.50;55.00
37806;DHT22;25082;50.870;0.022;2024-01-10T12:13:43;17.50;55.00
37806;DHT22;25082;50.870;0.022;2024-01-10T12:16:10;17.60;55.00
37806;DHT22;25082;50.870;0.022;2024-01-10T12:18:37;17.70;55.10
37806;DHT22;25082;50.870;0.022;2024-01-10T12:21:03;17.70;55.10
37806;DHT22;25082;50.870;0.022;2024-01-10T12:23:30;17.80;55.50
37806;DHT22;25082;50.870;0.022;2024-01-10T12:26:09;17.90;55.70
37806;DHT22;25082;50.870;0.022;2024-01-10T12:28:35;18.10;55.50
37806;DHT22;25082;50.870;0.022;2024-01-10T12:31:03;18.20;54.20
37806;DHT22;25082;50.870;0.022;2024-01-10T12:33:29;18.10;54.00
37806;DHT22;25082;50.870;0.022;2024-01-10T12:36:08;18.10;54.30
37806;DHT22;25082;50.870;0.022;2024-01-10T12:38:35;18.10;54.40
37806;DHT22;25082;50.870;0.022;2024-01-10T12:41:01;18.10;54.60
37806;DHT22;25082;50.870;0.022;2024-01-10T12:43:29;18.10;54.70
37806;DHT22;25082;50.870;0.022;2024-01-10T12:46:08;18.10;54.80
37806;DHT22;25082;50.870;0.022;2024-01-10T12:48:36;18.00;54.90
37806;DHT22;25082;50.870;0.022;2024-01-10T12:51:10;18.00;55.10
37806;DHT22;25082;50.870;0.022;2024-01-10T12:53:37;18.00;55.10
37806;DHT22;25082;50.870;0.022;2024-01-10T12:56:05;18.00;55.20
37806;DHT22;25082;50.870;0.022;2024-01-10T12:58:31;18.00;55.20
37806;DHT22;25082;50.870;0.022;2024-01-10T13:00:57;18.10;55.50
37806;DHT22;25082;50.870;0.022;2024-01-10T13:03:23;18.20;55.60
37806;DHT22;25082;50.870;0.022;2024-01-10T13:05:50;19.00;55.30
37806;DHT22;25082;50.870;0.022;2024-01-10T13:08:17;20.20;53.40
37806;DHT22;25082;50.870;0.022;2024-01-10T13:10:42;21.50;50.40
37806;DHT22;25082;50.870;0.022;2024-01-10T13:13:08;22.80;47.40
37806;DHT22;25082;50.870;0.022;2024-01-10T13:15:34;24.00;45.00
37806;DHT22;25082;50.870;0.022;2024-01-10T13:18:00;24.90;42.60
37806;DHT22;25082;50.870;0.022;2024-01-10T13:20:25;25.60;40.90
37806;DHT22;25082;50.870;0.022;2024-01-10T13:22:51;25.90;39.80
37806;DHT22;25082;50.870;0.022;2024-01-10T13:25:18;26.10;39.50
37806;DHT22;25082;50.870;0.022;2024-01-10T13:27:46;26.10;39.00
37806;DHT22;25082;50.870;0.022;2024-01-10T13:30:12;26.00;38.90
37806;DHT22;25082;50.870;0.022;2024-01-10T13:32:38;25.80;39.00
37806;DHT22;25082;50.870;0.022;2024-01-10T13:35:04;25.50;39.60
37806;DHT22;25082;50.870;0.022;2024-01-10T13:37:30;25.20;40.30
37806;DHT22;25082;50.870;0.022;2024-01-10T13:39:58;24.90;40.50
37806;DHT22;25082;50.870;0.022;2024-01-10T13:42:23;24.90;40.80
37806;DHT22;25082;50.870;0.022;2024-01-10T13:44:50;24.80;40.90
37806;DHT22;25082;50.870;0.022;2024-01-10T13:47:20;24.80;41.10
37806;DHT22;25082;50.870;0.022;2024-01-10T13:49:47;24.70;41.20
37806;DHT22;25082;50.870;0.022;2024-01-10T13:52:13;24.60;41.50
37806;DHT22;25082;50.870;0.022;2024-01-10T13:54:39;24.30;41.70
37806;DHT22;25082;50.870;0.022;2024-01-10T13:57:04;23.80;42.40
37806;DHT22;25082;50.870;0.022;2024-01-10T13:59:30;23.30;43.40
37806;DHT22;25082;50.870;0.022;2024-01-10T14:01:56;22.70;44.30
37806;DHT22;25082;50.870;0.022;2024-01-10T14:04:24;22.30;45.50
37806;DHT22;25082;50.870;0.022;2024-01-10T14:06:50;21.90;46.50
37806;DHT22;25082;50.870;0.022;2024-01-10T14:09:16;21.50;47.20
37806;DHT22;25082;50.870;0.022;2024-01-10T14:11:44;21.20;47.90
37806;DHT22;25082;50.870;0.022;2024-01-10T14:14:16;21.00;48.40
37806;DHT22;25082;50.870;0.022;2024-01-10T14:16:42;20.90;48.90
37806;DHT22;25082;50.870;0.022;2024-01-10T14:19:07;20.70;49.30
37806;DHT22;25082;50.870;0.022;2024-01-10T14:21:33;20.60;49.60
37806;DHT22;25082;50.870;0.022;2024-01-10T14:23:59;20.40;49.90
37806;DHT22;25082;50.870;0.022;2024-01-10T14:26:25;20.30;50.20
37806;DHT22;25082;50.870;0.022;2024-01-10T14:28:52;20.20;50.50
37806;DHT22;25082;50.870;0.022;2024-01-10T14:31:21;20.10;50.60
37806;DHT22;25082;50.870;0.022;2024-01-10T14:33:47;20.00;51.40
37806;DHT22;25082;50.870;0.022;2024-01-10T14:36:13;19.90;51.00
37806;DHT22;25082;50.870;0.022;2024-01-10T14:38:39;19.80;51.10
37806;DHT22;25082;50.870;0.022;2024-01-10T14:41:06;19.80;51.30
37806;DHT22;25082;50.870;0.022;2024-01-10T14:43:32;19.80;51.50
37806;DHT22;25082;50.870;0.022;2024-01-10T14:45:58;19.70;51.60
37806;DHT22;25082;50.870;0.022;2024-01-10T14:48:24;19.60;51.70
37806;DHT22;25082;50.870;0.022;2024-01-10T14:50:50;19.60;51.80
37806;DHT22;25082;50.870;0.022;2024-01-10T14:53:16;19.50;51.80
37806;DHT22;25082;50.870;0.022;2024-01-10T14:55:42;19.50;51.90
37806;DHT22;25082;50.870;0.022;2024-01-10T14:58:07;19.50;52.00
37806;DHT22;25082;50.870;0.022;2024-01-10T15:00:33;19.40;52.00
37806;DHT22;25082;50.870;0.022;2024-01-10T15:02:59;19.40;52.10
37806;DHT22;25082;50.870;0.022;2024-01-10T15:05:25;19.40;52.10
37806;DHT22;25082;50.870;0.022;2024-01-10T15:07:52;19.30;52.10
37806;DHT22;25082;50.870;0.022;2024-01-10T15:10:18;19.30;52.20
37806;DHT22;25082;50.870;0.022;2024-01-10T15:12:43;19.30;52.30
37806;DHT22;25082;50.870;0.022;2024-01-10T15:15:09;19.20;52.20
37806;DHT22;25082;50.870;0.022;2024-01-10T15:17:36;19.30;52.40
37806;DHT22;25082;50.870;0.022;2024-01-10T15:20:02;19.20;52.40
37806;DHT22;25082;50.870;0.022;2024-01-10T15:22:29;19.20;52.40
37806;DHT22;25082;50.870;0.022;2024-01-10T15:24:54;19.20;52.40
37806;DHT22;25082;50.870;0.022;2024-01-10T15:27:20;19.20;52.50
37806;DHT22;25082;50.870;0.022;2024-01-10T15:29:46;19.10;52.50
37806;DHT22;25082;50.870;0.022;2024-01-10T15:32:12;19.10;52.50
37806;DHT22;25082;50.870;0.022;2024-01-10T15:34:37;19.10;52.60
37806;DHT22;25082;50.870;0.022;2024-01-10T15:37:04;19.10;52.60
37806;DHT22;25082;50.870;0.022;2024-01-10T15:39:30;19.10;52.60